PWSweather.com
Personal Weather Stations
Station Observations
KPAEXPOR2
Wellington Estates, Export, PA 15632

Wellington EstatesExport, PA 15632

Lat: 40.446, Lon: -79.592

Elevation: 1286

Station Type: PWS1000-TD

http://www.westmorelandweather.com

Latest ConditionsUpdated 6:00:02 PM EDT Wednesday, Sep 28, 2016
Currently Today's Max Today's Min Today's Average
Temperature 67.3°F19.6°C 74.6°F23.7°C 45.5°F7.5°C 58.4°F14.7°C
Dew Point 45.2°F7.3°C 48.4°F9.1°C 30.8°F-0.7°C 39.7°F4.3°C
Winds 8.0 mph S12.9 kmh S 10.5 mph SSW16.9 kmh SSW - 3.9 mph 6.3 kmh
Wind Gusts 10.7 mph17.2 kmh 15.9 mph25.6 kmh - -
Humidity 45% 75% 20% 54%
Pressure 30.03 in1016.9 mb 30.05 in1017.6 mb 30.00 in1015.9 mb -
Hour Temp Dew Point Humidity Winds Wind Gusts Pressure Precip Precip Rate Daily Precip Total
06:00 PM 67.3°F19.6°C 45.2°F7.3°C 45% 8.0 mph S12.9 kmh S 10.7 mph17.2 kmh 30.03 in1016.9 mb 0.00 in0.0 mm 0.00 in0.0 mm 0.00 in0.0 mm
05:45 PM 68.0°F20.0°C 44.1°F6.7°C 42% 8.0 mph SSE12.9 kmh SSE 13.6 mph21.9 kmh 30.02 in1016.6 mb 0.00 in0.0 mm 0.00 in0.0 mm 0.00 in0.0 mm
05:30 PM 68.5°F20.3°C 43.3°F6.3°C 40% 9.0 mph SSW14.5 kmh SSW 13.0 mph20.9 kmh 30.02 in1016.6 mb 0.00 in0.0 mm 0.00 in0.0 mm 0.00 in0.0 mm
05:15 PM 69.2°F20.7°C 42.6°F5.9°C 38% 8.2 mph SW13.2 kmh SW 13.6 mph21.9 kmh 30.01 in1016.3 mb 0.00 in0.0 mm 0.00 in0.0 mm 0.00 in0.0 mm
05:00 PM 70.0°F21.1°C 41.1°F5.1°C 35% 9.5 mph SSW15.3 kmh SSW 13.6 mph21.9 kmh 30.00 in1015.9 mb 0.00 in0.0 mm 0.00 in0.0 mm 0.00 in0.0 mm
04:45 PM 70.5°F21.4°C 40.0°F4.4°C 33% 9.0 mph WNW14.5 kmh WNW 13.0 mph20.9 kmh 30.00 in1015.9 mb 0.00 in0.0 mm 0.00 in0.0 mm 0.00 in0.0 mm
04:30 PM 71.4°F21.9°C 40.8°F4.9°C 33% 8.4 mph E13.5 kmh E 13.0 mph20.9 kmh 30.00 in1015.9 mb 0.00 in0.0 mm 0.00 in0.0 mm 0.00 in0.0 mm
04:15 PM 71.2°F21.8°C 39.9°F4.4°C 32% 5.7 mph S9.2 kmh S 11.4 mph18.3 kmh 30.00 in1015.9 mb 0.00 in0.0 mm 0.00 in0.0 mm 0.00 in0.0 mm
04:00 PM 72.1°F22.3°C 39.8°F4.3°C 31% 8.5 mph WNW13.7 kmh WNW 13.6 mph21.9 kmh 30.00 in1015.9 mb 0.00 in0.0 mm 0.00 in0.0 mm 0.00 in0.0 mm
03:45 PM 72.7°F22.6°C 37.7°F3.2°C 28% 9.3 mph S15.0 kmh S 14.5 mph23.3 kmh 30.00 in1015.9 mb 0.00 in0.0 mm 0.00 in0.0 mm 0.00 in0.0 mm
03:30 PM 72.5°F22.5°C 36.6°F2.6°C 27% 9.1 mph S14.6 kmh S 13.0 mph20.9 kmh 30.00 in1015.9 mb 0.00 in0.0 mm 0.00 in0.0 mm 0.00 in0.0 mm
03:15 PM 73.7°F23.2°C 35.8°F2.1°C 25% 7.6 mph S12.2 kmh S 10.7 mph17.2 kmh 30.00 in1015.9 mb 0.00 in0.0 mm 0.00 in0.0 mm 0.00 in0.0 mm
03:00 PM 73.6°F23.1°C 35.6°F2.0°C 25% 7.8 mph SE12.6 kmh SE 14.5 mph23.3 kmh 30.00 in1015.9 mb 0.00 in0.0 mm 0.00 in0.0 mm 0.00 in0.0 mm
02:45 PM 72.7°F22.6°C 34.8°F1.6°C 25% 8.3 mph SSE13.4 kmh SSE 13.6 mph21.9 kmh 30.01 in1016.3 mb 0.00 in0.0 mm 0.00 in0.0 mm 0.00 in0.0 mm
02:30 PM 72.1°F22.3°C 34.4°F1.3°C 25% 6.2 mph SE10.0 kmh SE 9.8 mph15.8 kmh 30.01 in1016.3 mb 0.00 in0.0 mm 0.00 in0.0 mm 0.00 in0.0 mm
02:15 PM 73.7°F23.2°C 31.4°F-0.3°C 21% 8.5 mph S13.7 kmh S 15.9 mph25.6 kmh 30.02 in1016.6 mb 0.00 in0.0 mm 0.00 in0.0 mm 0.00 in0.0 mm
02:00 PM 74.6°F23.7°C 32.2°F0.1°C 21% 8.6 mph SSE13.8 kmh SSE 13.0 mph20.9 kmh 30.02 in1016.6 mb 0.00 in0.0 mm 0.00 in0.0 mm 0.00 in0.0 mm
01:45 PM 74.5°F23.6°C 30.8°F-0.7°C 20% 8.2 mph SSE13.2 kmh SSE 13.0 mph20.9 kmh 30.02 in1016.6 mb 0.00 in0.0 mm 0.00 in0.0 mm 0.00 in0.0 mm
01:30 PM 73.9°F23.3°C 34.9°F1.6°C 24% 8.0 mph S12.9 kmh S 15.9 mph25.6 kmh 30.02 in1016.6 mb 0.00 in0.0 mm 0.00 in0.0 mm 0.00 in0.0 mm
01:15 PM 72.8°F22.7°C 35.0°F1.7°C 25% 7.8 mph SW12.6 kmh SW 10.7 mph17.2 kmh 30.02 in1016.6 mb 0.00 in0.0 mm 0.00 in0.0 mm 0.00 in0.0 mm
01:00 PM 71.9°F22.2°C 38.0°F3.3°C 29% 8.5 mph SSE13.7 kmh SSE 12.1 mph19.5 kmh 30.02 in1016.6 mb 0.00 in0.0 mm 0.00 in0.0 mm 0.00 in0.0 mm
12:45 PM 71.4°F21.9°C 38.4°F3.6°C 30% 10.5 mph SSW16.9 kmh SSW 14.5 mph23.3 kmh 30.03 in1016.9 mb 0.00 in0.0 mm 0.00 in0.0 mm 0.00 in0.0 mm
12:30 PM 70.1°F21.2°C 42.0°F5.6°C 36% 9.5 mph WSW15.3 kmh WSW 13.6 mph21.9 kmh 30.03 in1016.9 mb 0.00 in0.0 mm 0.00 in0.0 mm 0.00 in0.0 mm
12:15 PM 70.7°F21.5°C 43.2°F6.2°C 37% 7.5 mph S12.1 kmh S 9.8 mph15.8 kmh 30.03 in1016.9 mb 0.00 in0.0 mm 0.00 in0.0 mm 0.00 in0.0 mm
12:00 PM 69.2°F20.7°C 46.4°F8.0°C 44% 5.1 mph SSE8.2 kmh SSE 9.8 mph15.8 kmh 30.03 in1016.9 mb 0.00 in0.0 mm 0.00 in0.0 mm 0.00 in0.0 mm
11:45 AM 68.0°F20.0°C 45.9°F7.7°C 45% 7.4 mph S11.9 kmh S 11.4 mph18.3 kmh 30.04 in1017.3 mb 0.00 in0.0 mm 0.00 in0.0 mm 0.00 in0.0 mm
11:30 AM 68.3°F20.2°C 47.4°F8.6°C 47% 8.4 mph E13.5 kmh E 13.0 mph20.9 kmh 30.04 in1017.3 mb 0.00 in0.0 mm 0.00 in0.0 mm 0.00 in0.0 mm
11:15 AM 67.6°F19.8°C 47.3°F8.5°C 48% 8.5 mph W13.7 kmh W 10.7 mph17.2 kmh 30.04 in1017.3 mb 0.00 in0.0 mm 0.00 in0.0 mm 0.00 in0.0 mm
11:00 AM 67.8°F19.9°C 46.9°F8.3°C 47% 7.0 mph ENE11.3 kmh ENE 9.8 mph15.8 kmh 30.05 in1017.6 mb 0.00 in0.0 mm 0.00 in0.0 mm 0.00 in0.0 mm
10:45 AM 67.1°F19.5°C 48.4°F9.1°C 51% 5.7 mph S9.2 kmh S 11.4 mph18.3 kmh 30.04 in1017.3 mb 0.00 in0.0 mm 0.00 in0.0 mm 0.00 in0.0 mm
10:30 AM 65.3°F18.5°C 48.2°F9.0°C 54% 5.1 mph S8.2 kmh S 7.6 mph12.2 kmh 30.04 in1017.3 mb 0.00 in0.0 mm 0.00 in0.0 mm 0.00 in0.0 mm
10:15 AM 63.5°F17.5°C 47.0°F8.3°C 55% 5.2 mph E8.4 kmh E 9.2 mph14.8 kmh 30.03 in1016.9 mb 0.00 in0.0 mm 0.00 in0.0 mm 0.00 in0.0 mm
10:00 AM 61.5°F16.4°C 45.2°F7.3°C 55% 6.7 mph E10.8 kmh E 11.4 mph18.3 kmh 30.04 in1017.3 mb 0.00 in0.0 mm 0.00 in0.0 mm 0.00 in0.0 mm
09:45 AM 59.7°F15.4°C 44.9°F7.2°C 58% 5.5 mph ESE8.9 kmh ESE 7.6 mph12.2 kmh 30.04 in1017.3 mb 0.00 in0.0 mm 0.00 in0.0 mm 0.00 in0.0 mm
09:30 AM 57.0°F13.9°C 41.9°F5.5°C 57% 3.6 mph SE5.8 kmh SE 5.4 mph8.7 kmh 30.03 in1016.9 mb 0.00 in0.0 mm 0.00 in0.0 mm 0.00 in0.0 mm
09:00 AM 55.0°F12.8°C 43.1°F6.2°C 64% 1.5 mph SE2.4 kmh SE 4.5 mph7.2 kmh 30.03 in1016.9 mb 0.00 in0.0 mm 0.00 in0.0 mm 0.00 in0.0 mm
08:45 AM 52.7°F11.5°C 42.8°F6.0°C 69% 0.7 mph SE1.1 kmh SE 1.6 mph2.6 kmh 30.03 in1016.9 mb 0.00 in0.0 mm 0.00 in0.0 mm 0.00 in0.0 mm
08:30 AM 50.5°F10.3°C 41.8°F5.4°C 72% 0.1 mph SE0.2 kmh SE 1.6 mph2.6 kmh 30.03 in1016.9 mb 0.00 in0.0 mm 0.00 in0.0 mm 0.00 in0.0 mm
08:15 AM 48.5°F9.2°C 40.6°F4.8°C 74% 0.9 mph N1.4 kmh N 1.6 mph2.6 kmh 30.03 in1016.9 mb 0.00 in0.0 mm 0.00 in0.0 mm 0.00 in0.0 mm
08:00 AM 46.9°F8.3°C 39.4°F4.1°C 75% 1.2 mph N1.9 kmh N 2.2 mph3.5 kmh 30.03 in1016.9 mb 0.00 in0.0 mm 0.00 in0.0 mm 0.00 in0.0 mm
07:45 AM 45.5°F7.5°C 37.7°F3.2°C 74% 0.9 mph NNW1.4 kmh NNW 1.6 mph2.6 kmh 30.03 in1016.9 mb 0.00 in0.0 mm 0.00 in0.0 mm 0.00 in0.0 mm
07:30 AM 45.7°F7.6°C 37.9°F3.3°C 74% 1.3 mph NNW2.1 kmh NNW 1.6 mph2.6 kmh 30.02 in1016.6 mb 0.00 in0.0 mm 0.00 in0.0 mm 0.00 in0.0 mm
07:15 AM 45.8°F7.7°C 38.4°F3.6°C 75% 0.9 mph N1.4 kmh N 1.6 mph2.6 kmh 30.02 in1016.6 mb 0.00 in0.0 mm 0.00 in0.0 mm 0.00 in0.0 mm
07:00 AM 45.5°F7.5°C 37.7°F3.2°C 74% 0.4 mph NW0.6 kmh NW 1.6 mph2.6 kmh 30.02 in1016.6 mb 0.00 in0.0 mm 0.00 in0.0 mm 0.00 in0.0 mm
06:45 AM 45.5°F7.5°C 37.7°F3.2°C 74% 1.0 mph NNW1.6 kmh NNW 1.6 mph2.6 kmh 30.03 in1016.9 mb 0.00 in0.0 mm 0.00 in0.0 mm 0.00 in0.0 mm
06:30 AM 45.5°F7.5°C 37.3°F2.9°C 73% 0.8 mph N1.3 kmh N 1.6 mph2.6 kmh 30.03 in1016.9 mb 0.00 in0.0 mm 0.00 in0.0 mm 0.00 in0.0 mm
06:15 AM 45.8°F7.7°C 37.7°F3.2°C 73% Calm Calm -- 30.03 in1016.9 mb 0.00 in0.0 mm 0.00 in0.0 mm 0.00 in0.0 mm
06:00 AM 45.8°F7.7°C 37.7°F3.2°C 73% 0.1 mph N0.2 kmh N 0.7 mph1.1 kmh 30.02 in1016.6 mb 0.00 in0.0 mm 0.00 in0.0 mm 0.00 in0.0 mm
05:45 AM 46.0°F7.8°C 37.9°F3.3°C 73% Calm Calm -- 30.02 in1016.6 mb 0.00 in0.0 mm 0.00 in0.0 mm 0.00 in0.0 mm
05:30 AM 46.2°F7.9°C 37.7°F3.2°C 72% Calm Calm -- 30.02 in1016.6 mb 0.00 in0.0 mm 0.00 in0.0 mm 0.00 in0.0 mm
05:15 AM 46.4°F8.0°C 37.9°F3.3°C 72% Calm Calm -- 30.02 in1016.6 mb 0.00 in0.0 mm 0.00 in0.0 mm 0.00 in0.0 mm
05:00 AM 46.7°F8.2°C 38.2°F3.4°C 72% Calm Calm -- 30.02 in1016.6 mb 0.00 in0.0 mm 0.00 in0.0 mm 0.00 in0.0 mm
04:45 AM 46.9°F8.3°C 38.4°F3.6°C 72% 0.1 mph N0.2 kmh N 0.7 mph1.1 kmh 30.01 in1016.3 mb 0.00 in0.0 mm 0.00 in0.0 mm 0.00 in0.0 mm
04:30 AM 46.9°F8.3°C 38.0°F3.3°C 71% 0.2 mph N0.3 kmh N 0.7 mph1.1 kmh 30.01 in1016.3 mb 0.00 in0.0 mm 0.00 in0.0 mm 0.00 in0.0 mm
04:15 AM 47.1°F8.4°C 38.2°F3.4°C 71% Calm Calm -- 30.01 in1016.3 mb 0.00 in0.0 mm 0.00 in0.0 mm 0.00 in0.0 mm
04:00 AM 47.3°F8.5°C 38.0°F3.3°C 70% Calm Calm -- 30.01 in1016.3 mb 0.00 in0.0 mm 0.00 in0.0 mm 0.00 in0.0 mm
03:45 AM 48.0°F8.9°C 38.7°F3.7°C 70% 0.1 mph N0.2 kmh N 0.7 mph1.1 kmh 30.01 in1016.3 mb 0.00 in0.0 mm 0.00 in0.0 mm 0.00 in0.0 mm
03:30 AM 48.4°F9.1°C 39.0°F3.9°C 70% 0.5 mph N0.8 kmh N 0.7 mph1.1 kmh 30.00 in1015.9 mb 0.00 in0.0 mm 0.00 in0.0 mm 0.00 in0.0 mm
03:15 AM 48.5°F9.2°C 39.2°F4.0°C 70% 0.7 mph N1.1 kmh N 1.6 mph2.6 kmh 30.01 in1016.3 mb 0.00 in0.0 mm 0.00 in0.0 mm 0.00 in0.0 mm
03:00 AM 48.5°F9.2°C 38.8°F3.8°C 69% 0.4 mph NNW0.6 kmh NNW 1.6 mph2.6 kmh 30.01 in1016.3 mb 0.00 in0.0 mm 0.00 in0.0 mm 0.00 in0.0 mm
02:45 AM 48.5°F9.2°C 38.8°F3.8°C 69% 0.8 mph NW1.3 kmh NW 1.6 mph2.6 kmh 30.01 in1016.3 mb 0.00 in0.0 mm 0.00 in0.0 mm 0.00 in0.0 mm
02:30 AM 48.4°F9.1°C 38.7°F3.7°C 69% 0.6 mph NW1.0 kmh NW 1.6 mph2.6 kmh 30.01 in1016.3 mb 0.00 in0.0 mm 0.00 in0.0 mm 0.00 in0.0 mm
02:15 AM 48.2°F9.0°C 38.9°F3.8°C 70% 0.7 mph NNW1.1 kmh NNW 1.6 mph2.6 kmh 30.01 in1016.3 mb 0.00 in0.0 mm 0.00 in0.0 mm 0.00 in0.0 mm
02:00 AM 48.5°F9.2°C 38.8°F3.8°C 69% Calm Calm -- 30.00 in1015.9 mb 0.00 in0.0 mm 0.00 in0.0 mm 0.00 in0.0 mm
01:45 AM 48.5°F9.2°C 38.8°F3.8°C 69% Calm Calm -- 30.00 in1015.9 mb 0.00 in0.0 mm 0.00 in0.0 mm 0.00 in0.0 mm
01:30 AM 48.7°F9.3°C 38.6°F3.7°C 68% 0.1 mph NW0.2 kmh NW 0.7 mph1.1 kmh 30.00 in1015.9 mb 0.00 in0.0 mm 0.00 in0.0 mm 0.00 in0.0 mm
01:15 AM 48.9°F9.4°C 38.8°F3.8°C 68% 0.4 mph SW0.6 kmh SW 0.7 mph1.1 kmh 30.00 in1015.9 mb 0.00 in0.0 mm 0.00 in0.0 mm 0.00 in0.0 mm
01:00 AM 48.9°F9.4°C 38.4°F3.6°C 67% 0.9 mph NNE1.4 kmh NNE 1.6 mph2.6 kmh 30.00 in1015.9 mb 0.00 in0.0 mm 0.00 in0.0 mm 0.00 in0.0 mm
12:45 AM 49.3°F9.6°C 38.4°F3.6°C 66% 0.2 mph SE0.3 kmh SE 0.7 mph1.1 kmh 30.00 in1015.9 mb 0.00 in0.0 mm 0.00 in0.0 mm 0.00 in0.0 mm
12:30 AM 49.4°F9.7°C 38.6°F3.7°C 66% 0.1 mph WSW0.2 kmh WSW 0.7 mph1.1 kmh 30.00 in1015.9 mb 0.00 in0.0 mm 0.00 in0.0 mm 0.00 in0.0 mm
12:15 AM 49.8°F9.9°C 38.5°F3.6°C 65% 0.2 mph N0.3 kmh N 0.7 mph1.1 kmh 30.00 in1015.9 mb 0.00 in0.0 mm 0.00 in0.0 mm 0.00 in0.0 mm
12:00 AM 50.2°F10.1°C 38.5°F3.6°C 64% 0.4 mph ESE0.6 kmh ESE 0.7 mph1.1 kmh 30.00 in1015.9 mb 0.00 in0.0 mm 0.00 in0.0 mm 0.00 in0.0 mm